Spring Valley, Ohio
Current Conditions -  °F | °C
As of 8:53 PM on Wednesday 22 Oct 2014 (Local Time) from KMGY Reporting Station
Overcast Overcast  
Wind Chill: 44°   Ceiling: 2100
Heat Index: 48°   Visibility: 10mi
Dew Point: 40°   Wind: 9mph
Humidity: 74%   Direction: 30°NNE
Pressure: 30.28"   Gusts: NA
Location:  39.61°N, 84.01°W
Report Text: KMGY 230053Z AUTO 03008KT 10SM OVC021 09/04 A3028 RMK AO2 SLP257 T00890044
Loading
Personal Weather Stations






























Interactive Weather Map
Tropical Storm Tracking
New forecast layout! Learn more

10-Day Weather Forecast

Advertisements
Track Severe Weather on mobile